Time;durP1;ratioP1;P1;durP2;ratioP2;P2;SDS_P1;SDS_P2;PMS_P1;PMS_P2;Temp;Humidity;BMP_temperature;BMP_pressure;BME280_temperature;BME280_humidity;BME280_pressure;Samples;Min_cycle;Max_cycle;Signal;HPM_P1;HPM_P2
2022/08/10 00:00:21;;;;;;;3.50;1.50;;;;;;;17.94;51.44;96521.53;5038971;28;24439;-72
2022/08/10 00:02:50;;;;;;;3.08;1.67;;;;;;;18.02;52.29;96521.72;5037572;28;24813;-72
2022/08/10 00:05:16;;;;;;;2.78;1.50;;;;;;;17.94;52.44;96522.34;5031397;28;24432;-73
2022/08/10 00:07:43;;;;;;;2.55;1.60;;;;;;;17.89;52.02;96521.91;5038437;28;24443;-73
2022/08/10 00:10:11;;;;;;;3.33;1.70;;;;;;;17.87;52.30;96526.41;5036737;28;24506;-73
2022/08/10 00:12:38;;;;;;;2.27;1.50;;;;;;;17.86;52.38;96525.59;5038763;28;24428;-73
2022/08/10 00:15:06;;;;;;;4.50;1.55;;;;;;;17.94;51.88;96517.13;5044341;28;24509;-74
2022/08/10 00:17:32;;;;;;;2.00;1.73;;;;;;;17.98;52.12;96512.47;5032536;28;24439;-74
2022/08/10 00:20:00;;;;;;;2.28;1.70;;;;;;;18.02;51.82;96516.50;5043746;28;24435;-74
2022/08/10 00:22:26;;;;;;;2.40;1.42;;;;;;;18.01;51.60;96507.81;5032708;28;24864;-74
2022/08/10 00:24:56;;;;;;;3.22;1.70;;;;;;;18.02;52.05;96508.63;5034179;28;24442;-73
2022/08/10 00:27:22;;;;;;;2.58;1.63;;;;;;;18.03;52.23;96515.56;5040539;28;24977;-72
2022/08/10 00:29:49;;;;;;;2.97;1.65;;;;;;;18.00;52.13;96515.81;5040015;28;24469;-74
2022/08/10 00:32:15;;;;;;;3.25;1.70;;;;;;;17.93;52.00;96512.84;5040320;28;24840;-73
2022/08/10 00:34:42;;;;;;;3.70;1.77;;;;;;;17.92;51.96;96513.81;5041009;28;24987;-72
2022/08/10 00:37:09;;;;;;;2.33;1.60;;;;;;;17.98;52.02;96512.47;5041812;28;24439;-73
2022/08/10 00:39:36;;;;;;;1.58;1.45;;;;;;;18.04;51.89;96509.34;5038298;28;24438;-75
2022/08/10 00:42:04;;;;;;;2.22;1.67;;;;;;;17.93;52.27;96512.00;5036625;28;24451;-72
2022/08/10 00:44:30;;;;;;;2.05;1.40;;;;;;;17.75;52.55;96516.91;5037045;28;24451;-73
2022/08/10 00:46:59;;;;;;;8.27;1.87;;;;;;;17.59;52.98;96512.88;5041259;28;24463;-72
2022/08/10 00:49:26;;;;;;;1.90;1.60;;;;;;;17.65;53.03;96520.25;5039373;28;24976;-73
2022/08/10 00:51:53;;;;;;;1.80;1.53;;;;;;;17.66;52.96;96521.09;5038609;28;24431;-73
2022/08/10 00:54:21;;;;;;;3.15;1.38;;;;;;;17.56;53.53;96513.13;5034775;28;24444;-75
2022/08/10 00:56:48;;;;;;;1.70;1.40;;;;;;;17.54;53.41;96509.81;5033527;28;24435;-74
2022/08/10 00:59:14;;;;;;;2.30;1.48;;;;;;;17.53;53.69;96510.72;5035170;28;24493;-74
2022/08/10 01:01:41;;;;;;;4.35;1.65;;;;;;;17.54;53.86;96508.94;5041070;28;24504;-74
2022/08/10 01:04:07;;;;;;;1.85;1.60;;;;;;;17.44;54.17;96514.09;5035321;28;25158;-75
2022/08/10 01:06:41;;;;;;;2.35;1.90;;;;;;;17.36;54.70;96508.63;5039534;28;24439;-74
2022/08/10 01:09:15;;;;;;;1.92;1.55;;;;;;;17.26;55.20;96515.53;5032793;28;24442;-73
2022/08/10 01:11:49;;;;;;;5.95;1.70;;;;;;;17.20;55.21;96514.19;5033175;28;24983;-74
2022/08/10 01:14:25;;;;;;;1.92;1.50;;;;;;;17.33;54.57;96520.16;5035686;28;24440;-73
2022/08/10 01:16:57;;;;;;;3.95;1.90;;;;;;;17.14;55.08;96510.28;5041396;28;24435;-74
2022/08/10 01:19:37;;;;;;;2.40;1.52;;;;;;;17.22;55.00;96508.88;5041530;28;24489;-74
2022/08/10 01:22:22;;;;;;;6.23;1.87;;;;;;;17.07;55.56;96516.94;5044263;28;24451;-73
2022/08/10 01:25:10;;;;;;;2.38;1.60;;;;;;;17.03;55.70;96512.91;5044232;28;24448;-73
2022/08/10 01:27:46;;;;;;;4.00;1.80;;;;;;;16.88;56.26;96509.66;5041482;28;24494;-74
2022/08/10 01:30:15;;;;;;;2.35;1.75;;;;;;;16.71;56.99;96512.69;5045079;28;24439;-74
2022/08/10 01:32:48;;;;;;;2.05;1.70;;;;;;;16.63;57.57;96515.88;5044005;28;24493;-74
2022/08/10 01:35:22;;;;;;;1.40;1.30;;;;;;;16.70;57.06;96517.09;5043924;28;24485;-74
2022/08/10 01:38:03;;;;;;;2.85;1.52;;;;;;;16.69;57.34;96519.84;5046185;28;24972;-74
2022/08/10 01:40:32;;;;;;;2.47;1.80;;;;;;;16.69;57.48;96522.44;5045204;28;24439;-74
2022/08/10 01:43:03;;;;;;;3.22;1.67;;;;;;;16.63;57.51;96521.13;5047025;28;24520;-74
2022/08/10 01:45:32;;;;;;;2.22;1.48;;;;;;;16.43;58.77;96514.78;5035491;28;24513;-73
2022/08/10 01:50:58;;;;;;;3.83;1.70;;;;;;;16.42;58.45;96523.53;4994828;28;24446;-75
2022/08/10 01:53:28;;;;;;;2.75;1.70;;;;;;;16.20;59.13;96518.22;5042547;28;24443;-73
2022/08/10 01:55:56;;;;;;;2.30;1.67;;;;;;;16.26;59.29;96517.78;5037006;28;24968;-73
2022/08/10 01:58:25;;;;;;;2.90;1.58;;;;;;;16.26;59.45;96512.56;5040992;28;24431;-74
2022/08/10 02:00:54;;;;;;;1.63;1.33;;;;;;;16.20;59.19;96521.69;5040562;28;25054;-74
2022/08/10 02:03:22;;;;;;;3.25;2.05;;;;;;;16.21;58.88;96517.31;5042394;28;24490;-74
2022/08/10 02:05:54;;;;;;;2.42;1.63;;;;;;;16.32;58.69;96517.34;5034761;28;24503;-73
2022/08/10 02:08:24;;;;;;;2.60;1.60;;;;;;;16.39;58.96;96510.72;5039814;28;24463;-74
2022/08/10 02:10:52;;;;;;;2.65;1.70;;;;;;;16.31;58.96;96510.44;5040463;28;24464;-73
2022/08/10 02:13:19;;;;;;;2.35;1.77;;;;;;;16.41;58.81;96514.03;5041905;28;25012;-73
2022/08/10 02:15:50;;;;;;;2.60;1.65;;;;;;;16.35;58.87;96516.28;5037029;28;24790;-74
2022/08/10 02:18:20;;;;;;;3.60;1.70;;;;;;;16.41;58.89;96516.66;5040206;28;24439;-73
2022/08/10 02:20:49;;;;;;;3.40;1.55;;;;;;;16.24;59.37;96514.47;5040129;28;24478;-73
2022/08/10 02:23:19;;;;;;;1.70;1.47;;;;;;;16.15;59.84;96512.53;5040408;28;24593;-72
2022/08/10 02:25:46;;;;;;;3.20;1.30;;;;;;;16.14;59.94;96516.09;5035725;28;24482;-74
2022/08/10 02:28:15;;;;;;;2.45;1.70;;;;;;;16.11;59.65;96514.53;5041509;28;24435;-75
2022/08/10 02:30:43;;;;;;;2.88;1.65;;;;;;;16.19;59.41;96520.00;5040262;28;24444;-75
2022/08/10 02:33:10;;;;;;;4.45;1.90;;;;;;;16.14;59.91;96516.91;5039312;28;24443;-72
2022/08/10 02:35:40;;;;;;;5.00;1.50;;;;;;;16.20;59.71;96516.47;5037846;28;24423;-74
2022/08/10 02:38:09;;;;;;;1.77;1.48;;;;;;;16.29;59.50;96509.72;5041349;28;24485;-75
2022/08/10 02:40:41;;;;;;;1.88;1.65;;;;;;;16.25;59.84;96502.22;5041501;28;24431;-75
2022/08/10 02:43:19;;;;;;;2.92;1.40;;;;;;;16.34;59.67;96510.22;5039022;28;24830;-75
2022/08/10 02:45:49;;;;;;;3.20;1.98;;;;;;;16.35;59.55;96514.50;5037869;28;24434;-75
2022/08/10 02:48:20;;;;;;;1.77;1.42;;;;;;;16.24;60.00;96509.25;5042993;28;24439;-75
2022/08/10 02:50:55;;;;;;;2.72;1.70;;;;;;;15.97;61.20;96512.06;5041333;28;24992;-74
2022/08/10 02:53:31;;;;;;;3.13;1.70;;;;;;;15.89;61.57;96506.56;5040171;28;21219;-74
2022/08/10 02:56:02;;;;;;;10.63;1.85;;;;;;;15.76;61.97;96513.63;5035506;28;24530;-74
2022/08/10 02:58:33;;;;;;;3.65;1.60;;;;;;;15.57;62.55;96512.28;5040540;28;24487;-74
2022/08/10 03:01:18;;;;;;;2.50;1.70;;;;;;;15.44;62.76;96506.28;5036840;28;24836;-74
2022/08/10 03:03:48;;;;;;;3.00;1.50;;;;;;;15.46;63.00;96507.84;5036127;28;24500;-74
2022/08/10 03:06:21;;;;;;;5.57;1.77;;;;;;;15.33;63.73;96509.63;5042006;28;24481;-74
2022/08/10 03:08:50;;;;;;;2.78;1.70;;;;;;;15.10;64.35;96518.25;5039085;28;24436;-74
2022/08/10 03:11:22;;;;;;;3.17;1.80;;;;;;;14.92;65.24;96518.56;5042579;28;24435;-74
2022/08/10 03:13:51;;;;;;;2.53;1.83;;;;;;;14.97;65.35;96513.00;5040303;28;24447;-72
2022/08/10 03:16:19;;;;;;;2.90;1.90;;;;;;;14.97;65.49;96526.06;5044176;28;24431;-73
2022/08/10 03:18:47;;;;;;;2.37;1.87;;;;;;;14.88;65.67;96522.31;5039224;28;24432;-74
2022/08/10 03:21:18;;;;;;;2.10;1.70;;;;;;;14.77;66.16;96524.81;5043213;28;24435;-73
2022/08/10 03:23:45;;;;;;;2.03;1.77;;;;;;;14.80;66.60;96516.78;5040526;28;24494;-74
2022/08/10 03:26:15;;;;;;;4.82;2.00;;;;;;;14.86;66.30;96510.31;5044606;28;24438;-73
2022/08/10 03:28:43;;;;;;;2.17;1.60;;;;;;;14.81;66.58;96521.06;5039000;28;24489;-73
2022/08/10 03:31:10;;;;;;;2.33;1.70;;;;;;;14.82;66.33;96516.66;5043268;28;24439;-73
2022/08/10 03:33:40;;;;;;;2.30;1.73;;;;;;;14.76;66.64;96510.13;5030198;28;24436;-74
2022/08/10 03:36:07;;;;;;;4.78;1.58;;;;;;;14.94;66.94;96510.59;5040723;28;25006;-73
2022/08/10 03:38:35;;;;;;;3.22;2.00;;;;;;;14.97;66.93;96516.44;5038223;28;24522;-73
2022/08/10 03:41:05;;;;;;;3.00;1.83;;;;;;;14.87;67.45;96514.56;5039835;28;24477;-73
2022/08/10 03:43:33;;;;;;;2.10;1.88;;;;;;;14.92;66.98;96512.50;5038118;28;24462;-73
2022/08/10 03:46:06;;;;;;;2.30;1.70;;;;;;;15.04;66.53;96522.09;5040585;28;24531;-73
2022/08/10 03:48:34;;;;;;;1.85;1.65;;;;;;;15.03;66.81;96519.59;5038832;28;24440;-73
2022/08/10 03:51:01;;;;;;;5.00;1.92;;;;;;;14.93;67.46;96520.22;5040371;28;24841;-73
2022/08/10 03:53:28;;;;;;;2.67;1.80;;;;;;;14.86;67.54;96516.34;5038342;28;24436;-74
2022/08/10 03:55:56;;;;;;;2.22;1.70;;;;;;;14.96;66.97;96519.19;5040631;28;24817;-73
2022/08/10 03:58:23;;;;;;;3.00;1.73;;;;;;;15.05;66.68;96513.31;5039838;28;25033;-73
2022/08/10 04:00:51;;;;;;;2.80;1.65;;;;;;;15.06;66.61;96525.44;5035079;28;24446;-75
2022/08/10 04:03:17;;;;;;;5.10;1.90;;;;;;;15.10;65.78;96524.28;5034559;28;24897;-73
2022/08/10 04:05:44;;;;;;;2.90;1.70;;;;;;;14.84;66.96;96525.25;5034919;28;24486;-72
2022/08/10 04:08:11;;;;;;;4.05;1.98;;;;;;;14.72;67.76;96522.53;5031283;28;24439;-75
2022/08/10 04:10:37;;;;;;;2.13;1.80;;;;;;;14.62;68.37;96525.84;5042025;28;24440;-75
2022/08/10 04:13:06;;;;;;;2.88;1.70;;;;;;;14.58;68.70;96532.19;5031654;28;24448;-75
2022/08/10 04:15:32;;;;;;;2.25;1.67;;;;;;;14.56;68.51;96531.44;5043278;28;24434;-75
2022/08/10 04:17:59;;;;;;;2.50;1.58;;;;;;;14.73;68.03;96532.00;5039387;28;24458;-75
2022/08/10 04:20:31;;;;;;;4.60;1.80;;;;;;;14.65;68.63;96534.28;5036928;28;24448;-75
2022/08/10 04:23:02;;;;;;;1.52;1.35;;;;;;;14.46;69.15;96539.00;5023893;28;24551;-78
2022/08/10 04:25:29;;;;;;;1.92;1.52;;;;;;;14.43;69.54;96540.06;5027591;28;24435;-73
2022/08/10 04:27:57;;;;;;;2.17;1.73;;;;;;;14.41;69.52;96538.47;5033167;28;24777;-75
2022/08/10 04:30:27;;;;;;;2.15;1.60;;;;;;;14.34;69.54;96538.03;5031661;28;25285;-74
2022/08/10 04:32:55;;;;;;;5.13;1.52;;;;;;;14.33;69.75;96538.16;5035620;28;24450;-75
2022/08/10 04:35:23;;;;;;;4.68;1.50;;;;;;;14.18;71.05;96540.00;5023068;28;24444;-73
2022/08/10 04:37:52;;;;;;;2.20;1.52;;;;;;;14.06;72.14;96533.81;5035318;28;24431;-74
2022/08/10 04:40:19;;;;;;;3.05;1.90;;;;;;;13.87;73.53;96535.91;5039427;28;24521;-74
2022/08/10 04:42:47;;;;;;;2.20;1.90;;;;;;;13.90;73.20;96538.31;5040825;28;24466;-74
2022/08/10 04:45:14;;;;;;;7.32;2.05;;;;;;;14.08;72.98;96539.75;5031689;28;24442;-73
2022/08/10 04:47:41;;;;;;;2.97;2.00;;;;;;;14.17;72.71;96536.56;5024700;28;24438;-73
2022/08/10 04:50:08;;;;;;;3.00;1.83;;;;;;;14.27;72.48;96537.59;5033456;28;24435;-73
2022/08/10 04:52:35;;;;;;;5.07;2.00;;;;;;;14.35;72.44;96538.88;5034079;28;24428;-73
2022/08/10 04:55:01;;;;;;;7.00;1.80;;;;;;;14.43;72.19;96539.22;5034013;28;24440;-73
2022/08/10 04:57:28;;;;;;;3.95;2.05;;;;;;;14.59;71.79;96542.50;5040257;28;24793;-73
2022/08/10 04:59:54;;;;;;;2.92;2.08;;;;;;;14.62;71.93;96537.09;5037196;28;24505;-73
2022/08/10 05:02:21;;;;;;;2.58;1.90;;;;;;;14.69;71.63;96535.75;5036741;28;24436;-72
2022/08/10 05:04:48;;;;;;;7.60;2.03;;;;;;;14.82;71.78;96542.75;5036171;28;24450;-74
2022/08/10 05:07:15;;;;;;;2.47;1.70;;;;;;;14.91;71.83;96544.75;5039740;28;24485;-74
2022/08/10 05:09:42;;;;;;;2.83;1.63;;;;;;;14.96;71.10;96543.47;5036839;28;24977;-75
2022/08/10 05:12:09;;;;;;;2.58;1.88;;;;;;;15.07;72.09;96547.97;5040065;28;24494;-74
2022/08/10 05:14:36;;;;;;;2.47;1.67;;;;;;;15.21;69.89;96545.25;5031649;28;24431;-74
2022/08/10 05:17:02;;;;;;;3.65;2.17;;;;;;;15.38;69.56;96543.25;5033569;28;24439;-75
2022/08/10 05:19:29;;;;;;;3.78;1.80;;;;;;;15.58;69.30;96552.31;5034162;28;24443;-72
2022/08/10 05:21:56;;;;;;;2.53;1.70;;;;;;;15.75;69.00;96553.75;5036087;28;24481;-73
2022/08/10 05:24:23;;;;;;;3.17;1.95;;;;;;;15.98;69.02;96552.91;5037969;28;24824;-74
2022/08/10 05:26:49;;;;;;;2.58;1.70;;;;;;;16.20;69.93;96550.44;5037358;28;24439;-73
2022/08/10 05:29:16;;;;;;;3.00;1.42;;;;;;;16.35;68.96;96552.88;5040815;28;24862;-74
2022/08/10 05:31:42;;;;;;;4.75;1.92;;;;;;;16.44;66.93;96547.81;5040353;28;24976;-74
2022/08/10 05:34:09;;;;;;;3.60;2.10;;;;;;;16.62;66.66;96547.41;5038397;28;24997;-74
2022/08/10 05:36:35;;;;;;;2.60;1.80;;;;;;;16.84;66.37;96554.50;5032317;28;24446;-74
2022/08/10 05:39:04;;;;;;;4.38;1.95;;;;;;;16.97;65.42;96555.22;5040845;28;24493;-74
2022/08/10 05:41:32;;;;;;;3.58;1.98;;;;;;;17.05;63.67;96552.84;5037216;28;24481;-75
2022/08/10 05:43:59;;;;;;;1.80;1.70;;;;;;;17.23;64.33;96550.63;5039321;28;24463;-73
2022/08/10 05:46:25;;;;;;;2.88;1.95;;;;;;;17.31;62.92;96550.03;5033129;28;24482;-75
2022/08/10 05:48:52;;;;;;;2.97;2.15;;;;;;;17.22;62.65;96548.13;5022624;28;24447;-76
2022/08/10 05:51:18;;;;;;;4.25;1.95;;;;;;;17.25;61.77;96550.50;5030361;28;24451;-74
2022/08/10 05:53:45;;;;;;;4.60;2.00;;;;;;;17.29;62.16;96550.16;5032726;28;24981;-74
2022/08/10 05:56:13;;;;;;;4.05;2.10;;;;;;;17.18;62.52;96552.75;5033355;28;24448;-76
2022/08/10 05:58:40;;;;;;;5.78;2.10;;;;;;;17.25;62.57;96553.13;5039092;28;24442;-74
2022/08/10 06:01:12;;;;;;;3.65;2.22;;;;;;;17.52;62.00;96561.44;5040633;28;24435;-73
2022/08/10 06:03:46;;;;;;;2.17;1.97;;;;;;;17.75;62.75;96554.44;5036849;28;24531;-72
2022/08/10 06:09:00;;;;;;;2.72;2.08;;;;;;;18.40;65.08;96557.16;5043946;28;24445;-72
2022/08/10 06:11:30;;;;;;;3.35;1.80;;;;;;;18.77;64.24;96553.19;5038648;28;24438;-73
2022/08/10 06:16:42;;;;;;;3.53;2.78;;;;;;;19.33;57.96;96558.06;5043426;28;25041;-74
2022/08/10 06:19:11;;;;;;;8.68;3.05;;;;;;;19.55;56.70;96551.78;5044282;28;24435;-73
2022/08/10 06:21:38;;;;;;;4.47;2.97;;;;;;;19.87;56.49;96557.84;5043149;28;24440;-74
2022/08/10 06:24:08;;;;;;;7.10;3.10;;;;;;;19.95;57.27;96553.63;5043478;28;24539;-74
2022/08/10 06:26:35;;;;;;;4.78;2.85;;;;;;;20.13;56.59;96555.56;5040657;28;24501;-75
2022/08/10 06:29:09;;;;;;;5.13;3.20;;;;;;;20.50;52.41;96556.59;5039916;28;24466;-75
2022/08/10 06:31:39;;;;;;;6.18;2.75;;;;;;;20.56;52.87;96552.59;5040242;28;24442;-74
2022/08/10 06:34:09;;;;;;;4.85;3.00;;;;;;;20.62;52.75;96549.41;5040201;28;24447;-73
2022/08/10 06:36:37;;;;;;;4.55;3.00;;;;;;;20.77;52.57;96555.06;5040143;28;24438;-74
2022/08/10 06:39:05;;;;;;;5.80;2.97;;;;;;;21.10;52.69;96556.41;5037658;28;24447;-73
2022/08/10 06:41:35;;;;;;;4.93;2.70;;;;;;;21.54;51.06;96553.22;5039326;28;24435;-72
2022/08/10 06:44:07;;;;;;;6.25;2.70;;;;;;;21.47;51.30;96556.47;5042679;28;24528;-72
2022/08/10 06:46:36;;;;;;;4.82;2.15;;;;;;;21.65;49.80;96545.13;5040616;28;25077;-72
2022/08/10 06:49:05;;;;;;;4.38;2.30;;;;;;;21.81;47.67;96542.72;5036045;28;24483;-72
2022/08/10 06:51:34;;;;;;;6.78;2.35;;;;;;;21.90;48.68;96544.44;5034183;28;24441;-73
2022/08/10 06:54:04;;;;;;;5.13;2.08;;;;;;;21.97;47.54;96537.59;5033950;28;24446;-73
2022/08/10 06:56:34;;;;;;;3.88;2.10;;;;;;;22.08;48.22;96538.38;5038171;28;24832;-73
2022/08/10 06:59:06;;;;;;;3.30;1.90;;;;;;;22.07;46.47;96542.84;5035123;28;24482;-73
2022/08/10 07:01:36;;;;;;;2.58;1.52;;;;;;;22.37;45.70;96541.69;5034587;28;24435;-73
2022/08/10 07:04:06;;;;;;;5.00;2.10;;;;;;;22.37;45.10;96541.69;5038785;28;24466;-76
2022/08/10 07:06:34;;;;;;;3.67;1.70;;;;;;;22.57;45.61;96542.34;5036675;28;24447;-69
2022/08/10 07:09:02;;;;;;;7.23;2.00;;;;;;;22.48;45.32;96545.09;5028215;28;24914;-74
2022/08/10 07:11:31;;;;;;;9.68;1.60;;;;;;;22.63;44.83;96541.75;5042250;28;24436;-72
2022/08/10 07:14:00;;;;;;;4.80;1.90;;;;;;;22.60;44.61;96546.50;5040290;28;24516;-74
2022/08/10 07:16:30;;;;;;;4.80;1.85;;;;;;;22.74;44.22;96553.88;5042524;28;24436;-77
2022/08/10 07:18:58;;;;;;;4.20;2.05;;;;;;;22.81;44.79;96549.66;5032694;28;24436;-72
2022/08/10 07:21:26;;;;;;;3.10;1.65;;;;;;;23.05;44.59;96545.56;5038764;28;24530;-74
2022/08/10 07:23:54;;;;;;;4.32;1.90;;;;;;;23.14;42.88;96542.00;5042421;28;24808;-73
2022/08/10 07:26:22;;;;;;;5.60;1.92;;;;;;;23.33;42.93;96540.94;5033653;28;24845;-72
2022/08/10 07:28:50;;;;;;;3.97;2.10;;;;;;;23.33;43.35;96548.88;5034316;28;24993;-73
2022/08/10 07:31:20;;;;;;;2.58;1.52;;;;;;;23.09;42.31;96542.44;5038680;28;24523;-73
2022/08/10 07:33:49;;;;;;;4.35;1.60;;;;;;;23.29;42.24;96539.63;5030438;28;25069;-74
2022/08/10 07:36:19;;;;;;;2.50;1.30;;;;;;;23.61;43.16;96538.94;5032172;28;25011;-73
2022/08/10 07:38:46;;;;;;;3.03;1.50;;;;;;;23.77;42.30;96536.41;5035636;28;24428;-73
2022/08/10 07:41:17;;;;;;;5.18;1.60;;;;;;;23.90;41.30;96544.69;5038930;28;24439;-73
2022/08/10 07:43:46;;;;;;;7.47;1.75;;;;;;;23.88;41.42;96544.03;5041527;28;24459;-75
2022/08/10 07:46:15;;;;;;;3.38;1.73;;;;;;;23.95;40.65;96540.75;5039804;28;24782;-74
2022/08/10 07:48:45;;;;;;;4.15;1.42;;;;;;;24.10;41.40;96542.63;5033613;28;24489;-75
2022/08/10 07:51:16;;;;;;;2.97;1.60;;;;;;;24.48;39.26;96539.59;5038692;28;24444;-74
2022/08/10 07:53:46;;;;;;;2.00;1.52;;;;;;;24.81;40.13;96540.41;5042572;28;25026;-75
2022/08/10 07:56:14;;;;;;;5.40;1.50;;;;;;;24.81;38.61;96543.91;5038319;28;24439;-74
2022/08/10 07:58:48;;;;;;;4.35;1.45;;;;;;;24.65;38.42;96545.69;5035027;28;24508;-74
2022/08/10 08:01:16;;;;;;;8.13;1.58;;;;;;;24.65;37.68;96538.56;5038941;28;24486;-74
2022/08/10 08:03:44;;;;;;;2.60;1.17;;;;;;;24.53;38.28;96537.25;5037229;28;24993;-75
2022/08/10 08:06:13;;;;;;;5.22;1.50;;;;;;;24.68;38.72;96543.53;5036867;28;24439;-74
2022/08/10 08:08:44;;;;;;;4.90;1.70;;;;;;;24.82;38.17;96544.72;5030382;28;24431;-73
2022/08/10 08:11:12;;;;;;;3.03;1.38;;;;;;;24.90;37.75;96539.41;5037432;28;24870;-74
2022/08/10 08:13:39;;;;;;;1.50;1.23;;;;;;;24.94;38.13;96542.56;5041539;28;24445;-73
2022/08/10 08:16:07;;;;;;;3.17;1.20;;;;;;;24.82;37.82;96542.06;5037103;28;24432;-73
2022/08/10 08:18:35;;;;;;;7.03;1.40;;;;;;;24.74;37.55;96545.53;5034899;28;24493;-73
2022/08/10 08:21:02;;;;;;;7.20;1.48;;;;;;;24.78;38.11;96554.81;5037678;28;24981;-74
2022/08/10 08:23:30;;;;;;;5.47;1.50;;;;;;;24.97;37.45;96550.19;5040358;28;24519;-73
2022/08/10 08:25:58;;;;;;;4.60;1.45;;;;;;;24.92;38.06;96555.13;5038496;28;24555;-74
2022/08/10 08:28:27;;;;;;;4.22;1.50;;;;;;;25.19;37.45;96544.22;5036790;28;24487;-74
2022/08/10 08:30:55;;;;;;;2.63;1.33;;;;;;;25.18;37.15;96544.38;5040685;28;24539;-76
2022/08/10 08:33:22;;;;;;;3.97;1.33;;;;;;;25.40;37.06;96553.44;5041358;28;24502;-77
2022/08/10 08:35:50;;;;;;;3.58;1.50;;;;;;;25.00;37.24;96539.25;5037627;28;24864;-77
2022/08/10 08:38:17;;;;;;;3.13;1.35;;;;;;;24.84;36.59;96546.22;5036079;28;24550;-75
2022/08/10 08:41:01;;;;;;;3.42;1.33;;;;;;;24.86;36.73;96544.22;5041309;28;25000;-75
2022/08/10 08:43:46;;;;;;;5.57;1.50;;;;;;;24.71;36.78;96545.06;5033531;28;24446;-75
2022/08/10 08:46:44;;;;;;;4.50;1.40;;;;;;;24.97;36.51;96544.88;5028096;28;25216;-76
2022/08/10 08:49:38;;;;;;;7.90;1.70;;;;;;;24.76;36.07;96540.91;5029679;28;24992;-76
2022/08/10 08:52:18;;;;;;;2.78;1.20;;;;;;;24.92;35.62;96552.47;5023515;28;24431;-76
2022/08/10 08:54:57;;;;;;;3.97;1.60;;;;;;;24.97;35.11;96550.19;5031217;28;24435;-76
2022/08/10 08:57:32;;;;;;;3.00;1.50;;;;;;;25.30;36.55;96541.22;5036829;28;24463;-76
2022/08/10 09:00:08;;;;;;;5.00;1.30;;;;;;;25.34;34.20;96550.47;5034340;28;24439;-77
2022/08/10 09:02:51;;;;;;;4.47;1.30;;;;;;;25.39;33.75;96543.84;5036275;28;24530;-76
2022/08/10 09:05:28;;;;;;;2.42;1.30;;;;;;;25.19;33.73;96538.91;5039593;28;24872;-75
2022/08/10 09:08:29;;;;;;;4.00;1.40;;;;;;;25.29;35.09;96544.03;5031446;28;25030;-77
2022/08/10 09:11:00;;;;;;;2.85;1.30;;;;;;;25.42;33.87;96546.97;5032915;28;24440;-76
2022/08/10 09:13:34;;;;;;;3.50;1.10;;;;;;;25.65;33.25;96544.41;5039018;28;24436;-77
2022/08/10 09:16:16;;;;;;;5.05;1.50;;;;;;;25.56;32.68;96542.78;5038099;28;24486;-77
2022/08/10 09:18:51;;;;;;;5.80;1.50;;;;;;;25.55;32.75;96527.88;5035810;28;24443;-73
2022/08/10 09:21:23;;;;;;;2.63;1.50;;;;;;;25.45;32.50;96537.84;5040588;28;24523;-74
2022/08/10 09:23:55;;;;;;;3.67;1.50;;;;;;;25.33;32.77;96532.09;5039189;28;24435;-75
2022/08/10 09:26:25;;;;;;;3.30;1.40;;;;;;;25.81;31.72;96525.81;5037827;28;24440;-76
2022/08/10 09:28:57;;;;;;;4.63;1.40;;;;;;;25.79;32.16;96517.19;5030622;28;24432;-75
2022/08/10 09:31:27;;;;;;;7.47;1.23;;;;;;;25.49;30.87;96533.88;5032447;28;24474;-76
2022/08/10 09:34:05;;;;;;;2.45;1.27;;;;;;;25.79;30.34;96525.16;5038170;28;24450;-75
2022/08/10 09:36:42;;;;;;;2.05;1.20;;;;;;;25.88;30.96;96514.50;5039623;28;24439;-76
2022/08/10 09:39:19;;;;;;;3.47;1.20;;;;;;;26.04;31.81;96517.09;5041098;28;25179;-76
2022/08/10 09:41:51;;;;;;;4.15;1.25;;;;;;;26.29;31.53;96515.94;5037603;28;24496;-76
2022/08/10 09:44:30;;;;;;;3.07;1.27;;;;;;;26.72;31.52;96528.75;5043305;28;24443;-79
2022/08/10 09:47:18;;;;;;;2.72;1.38;;;;;;;26.53;31.19;96514.13;5042059;28;24432;-76
2022/08/10 09:49:56;;;;;;;4.00;1.40;;;;;;;26.62;30.60;96512.22;5031923;28;24494;-75
2022/08/10 09:52:31;;;;;;;2.13;1.25;;;;;;;26.64;31.09;96513.72;5040335;28;24802;-77
2022/08/10 09:55:10;;;;;;;5.63;1.70;;;;;;;26.39;30.55;96521.00;5040610;28;24436;-76
2022/08/10 09:57:49;;;;;;;4.40;1.30;;;;;;;26.65;30.40;96515.34;5035467;28;24540;-76
2022/08/10 10:00:20;;;;;;;2.28;1.23;;;;;;;26.73;32.15;96512.63;5041426;28;24498;-77
2022/08/10 10:02:57;;;;;;;8.15;1.60;;;;;;;26.73;31.16;96507.31;5044362;28;24490;-77
2022/08/10 10:05:48;;;;;;;4.38;1.50;;;;;;;25.86;30.56;96514.69;5042333;28;24539;-76
2022/08/10 10:08:23;;;;;;;1.77;1.10;;;;;;;26.10;30.68;96511.06;5036819;28;24459;-75
2022/08/10 10:10:59;;;;;;;1.87;1.37;;;;;;;26.27;31.63;96502.00;5019215;28;24459;-76
2022/08/10 10:13:34;;;;;;;3.75;1.30;;;;;;;26.59;30.09;96508.13;5041204;28;24451;-76
2022/08/10 10:16:12;;;;;;;4.88;1.30;;;;;;;26.62;29.21;96502.41;5042095;28;24427;-75
2022/08/10 10:18:44;;;;;;;5.07;1.20;;;;;;;26.78;28.92;96502.31;5036238;28;24439;-76
2022/08/10 10:21:18;;;;;;;2.85;1.33;;;;;;;27.18;29.76;96508.28;5040339;28;24438;-76
2022/08/10 10:23:52;;;;;;;3.03;1.25;;;;;;;26.68;30.97;96504.38;5031584;28;24450;-76
2022/08/10 10:26:23;;;;;;;2.50;1.30;;;;;;;26.60;30.37;96501.78;5041494;28;24456;-76
2022/08/10 10:29:04;;;;;;;2.80;1.23;;;;;;;26.56;30.16;96500.50;5036140;28;24556;-75
2022/08/10 10:31:38;;;;;;;2.28;1.30;;;;;;;26.70;29.18;96491.75;5042823;28;24438;-76
2022/08/10 10:34:13;;;;;;;5.10;1.30;;;;;;;27.03;28.43;96492.28;5043684;28;24489;-75
2022/08/10 10:36:42;;;;;;;5.68;1.45;;;;;;;27.13;27.90;96485.88;5036081;28;24438;-75
2022/08/10 10:39:13;;;;;;;2.70;1.23;;;;;;;27.29;27.16;96490.19;5036317;28;24443;-76
2022/08/10 10:41:47;;;;;;;3.63;1.30;;;;;;;27.64;27.99;96494.78;5036064;28;24847;-75
2022/08/10 10:44:31;;;;;;;6.97;1.33;;;;;;;27.77;28.01;96487.97;5037176;28;25000;-71
2022/08/10 10:47:14;;;;;;;2.72;1.13;;;;;;;28.09;26.64;96478.75;5031987;28;25023;-71
2022/08/10 10:49:49;;;;;;;2.88;1.33;;;;;;;27.75;27.32;96490.84;5033924;28;24435;-73
2022/08/10 10:52:27;;;;;;;2.55;1.02;;;;;;;27.53;28.02;96471.28;5043046;28;24533;-71
2022/08/10 10:55:04;;;;;;;3.53;1.67;;;;;;;27.61;27.94;96492.47;5040333;28;24440;-72
2022/08/10 10:57:40;;;;;;;2.70;1.25;;;;;;;27.69;28.45;96480.91;5039021;28;24436;-72
2022/08/10 11:00:10;;;;;;;3.80;1.33;;;;;;;27.66;26.17;96479.47;5040100;28;24493;-71
2022/08/10 11:02:57;;;;;;;3.63;1.27;;;;;;;27.58;26.89;96473.41;5037030;28;24432;-72
2022/08/10 11:05:37;;;;;;;3.97;1.35;;;;;;;27.22;26.26;96479.47;5021611;28;24447;-71
2022/08/10 11:08:10;;;;;;;2.60;1.23;;;;;;;27.37;27.08;96469.66;5032758;28;24443;-71
2022/08/10 11:10:41;;;;;;;2.13;1.20;;;;;;;27.60;26.83;96468.72;5041328;28;24446;-72
2022/08/10 11:13:23;;;;;;;1.50;1.00;;;;;;;27.82;27.01;96472.31;5038097;28;24448;-71
2022/08/10 11:15:58;;;;;;;1.98;1.17;;;;;;;27.91;27.27;96460.50;5035190;28;24431;-72
2022/08/10 11:18:32;;;;;;;2.75;1.10;;;;;;;27.66;26.90;96462.63;5039492;28;24490;-71
2022/08/10 11:21:09;;;;;;;2.00;0.93;;;;;;;27.64;28.27;96468.16;5041782;28;24523;-71
2022/08/10 11:23:43;;;;;;;4.88;1.27;;;;;;;27.73;28.31;96469.69;5042565;28;24439;-69
2022/08/10 11:26:15;;;;;;;1.35;0.88;;;;;;;27.63;28.01;96471.03;5041055;28;24678;-72
2022/08/10 11:28:46;;;;;;;1.25;1.00;;;;;;;27.78;27.28;96463.03;5036445;28;24880;-71
2022/08/10 11:31:19;;;;;;;2.00;1.20;;;;;;;27.64;27.31;96452.19;5039269;28;24432;-73
2022/08/10 11:33:56;;;;;;;2.17;1.08;;;;;;;27.83;26.96;96457.97;5049331;28;24661;-73
2022/08/10 11:36:31;;;;;;;2.22;1.23;;;;;;;27.66;28.52;96455.50;5038638;28;24434;-72
2022/08/10 11:39:08;;;;;;;1.92;1.10;;;;;;;27.80;28.81;96461.81;5042619;28;24991;-71
2022/08/10 11:41:46;;;;;;;2.83;1.40;;;;;;;27.72;27.87;96452.09;5041598;28;24470;-72
2022/08/10 11:44:21;;;;;;;3.22;1.23;;;;;;;27.66;28.21;96455.50;5041818;28;24947;-72
2022/08/10 11:46:57;;;;;;;4.40;1.27;;;;;;;27.65;28.52;96453.00;5040136;28;24921;-72
2022/08/10 11:49:31;;;;;;;1.98;1.10;;;;;;;27.56;28.53;96454.16;5039207;28;24446;-73
2022/08/10 11:52:03;;;;;;;3.08;1.20;;;;;;;27.67;28.37;96465.13;5042441;28;24485;-72
2022/08/10 11:54:39;;;;;;;3.65;1.45;;;;;;;27.68;27.93;96473.94;5037989;28;24448;-72
2022/08/10 11:57:06;;;;;;;3.03;1.27;;;;;;;27.52;28.40;96461.66;5035084;28;24439;-73
2022/08/10 12:02:21;;;;;;;6.78;1.20;;;;;;;27.14;26.84;96448.47;5039955;28;24442;-72